Time;durP1;ratioP1;P1;durP2;ratioP2;P2;SDS_P1;SDS_P2;PMS_P1;PMS_P2;Temp;Humidity;BMP_temperature;BMP_pressure;BME280_temperature;BME280_humidity;BME280_pressure;Samples;Min_cycle;Max_cycle;Signal;HPM_P1;HPM_P2
2023/12/09 00:00:47;;;;;;;14.60;12.13;;;;;21.90;100041.00;;;;2079363;28;20752;-69
2023/12/09 00:01:47;;;;;;;16.13;11.43;;;;;21.90;100051.00;;;;2078764;28;20279;-69
2023/12/09 00:02:47;;;;;;;15.93;11.97;;;;;21.90;100038.00;;;;2077969;28;20205;-69
2023/12/09 00:03:48;;;;;;;14.20;10.53;;;;;21.90;100044.00;;;;2079639;28;20292;-69
2023/12/09 00:04:48;;;;;;;18.57;13.43;;;;;21.90;100044.00;;;;2066320;28;20210;-69
2023/12/09 00:05:48;;;;;;;14.73;11.60;;;;;21.90;100051.00;;;;2079698;28;20217;-69
2023/12/09 00:06:49;;;;;;;16.70;11.50;;;;;21.90;100054.00;;;;2084079;28;20232;-69
2023/12/09 00:07:49;;;;;;;14.80;11.13;;;;;21.90;100054.00;;;;2079086;28;20218;-69
2023/12/09 00:08:50;;;;;;;13.97;10.87;;;;;21.90;100049.00;;;;2079597;28;20263;-69
2023/12/09 00:09:50;;;;;;;14.85;10.95;;;;;21.90;100048.00;;;;2065100;28;20297;-69
2023/12/09 00:10:51;;;;;;;15.50;10.60;;;;;21.90;100050.00;;;;2079067;28;20229;-69
2023/12/09 00:11:52;;;;;;;15.30;11.07;;;;;21.90;100062.00;;;;2085213;28;20292;-69
2023/12/09 00:12:53;;;;;;;17.75;11.35;;;;;21.80;100061.00;;;;2078295;28;20225;-69
2023/12/09 00:13:53;;;;;;;16.15;11.95;;;;;21.80;100064.00;;;;2080162;28;20557;-69
2023/12/09 00:14:53;;;;;;;15.13;10.17;;;;;21.80;100052.00;;;;2070449;28;20225;-69
2023/12/09 00:15:54;;;;;;;13.70;10.97;;;;;21.80;100064.00;;;;2079625;28;20681;-69
2023/12/09 00:16:54;;;;;;;14.90;10.23;;;;;21.80;100059.00;;;;2080097;28;21136;-69
2023/12/09 00:17:54;;;;;;;15.00;10.13;;;;;21.80;100056.00;;;;2079305;28;20233;-69
2023/12/09 00:18:56;;;;;;;14.17;10.43;;;;;21.80;100058.00;;;;2079993;28;20265;-69
2023/12/09 00:19:56;;;;;;;15.27;10.85;;;;;21.80;100064.00;;;;2071617;28;20692;-69
2023/12/09 00:20:56;;;;;;;11.07;9.10;;;;;21.80;100057.00;;;;2086309;28;20220;-69
2023/12/09 00:21:57;;;;;;;16.03;11.00;;;;;21.80;100058.00;;;;2083181;28;20228;-69
2023/12/09 00:22:57;;;;;;;13.33;8.90;;;;;21.80;100058.00;;;;2082202;28;20253;-69
2023/12/09 00:23:59;;;;;;;13.53;9.50;;;;;21.80;100050.00;;;;2078659;28;20229;-69
2023/12/09 00:24:59;;;;;;;15.50;9.63;;;;;21.80;100056.00;;;;2062719;28;20226;-69
2023/12/09 00:25:59;;;;;;;12.13;8.90;;;;;21.80;100048.00;;;;2080122;28;20271;-69
2023/12/09 00:27:00;;;;;;;13.50;9.90;;;;;21.80;100054.00;;;;2078262;28;20217;-69
2023/12/09 00:28:00;;;;;;;12.70;9.80;;;;;21.80;100051.00;;;;2079989;28;20236;-69
2023/12/09 00:29:01;;;;;;;12.90;9.90;;;;;21.80;100057.00;;;;2079923;28;20241;-69
2023/12/09 00:30:01;;;;;;;14.33;9.23;;;;;21.80;100059.00;;;;2073174;28;20217;-69
2023/12/09 00:31:01;;;;;;;12.30;8.90;;;;;21.70;100053.00;;;;2087567;28;20255;-69
2023/12/09 00:32:02;;;;;;;11.57;8.87;;;;;21.70;100053.00;;;;2077857;28;20218;-69
2023/12/09 00:33:02;;;;;;;12.47;9.20;;;;;21.70;100041.00;;;;2079328;28;20240;-69
2023/12/09 00:34:02;;;;;;;11.30;8.63;;;;;21.70;100054.00;;;;2077142;28;20224;-69
2023/12/09 00:35:03;;;;;;;12.77;8.50;;;;;21.70;100044.00;;;;2074273;28;20670;-69
2023/12/09 00:36:04;;;;;;;12.50;8.40;;;;;21.70;100053.00;;;;2087568;28;20646;-69
2023/12/09 00:37:04;;;;;;;11.77;8.67;;;;;21.70;100047.00;;;;2081118;28;20645;-69
2023/12/09 00:38:04;;;;;;;12.70;7.97;;;;;21.70;100049.00;;;;2079882;28;20220;-69
2023/12/09 00:39:05;;;;;;;10.50;7.10;;;;;21.70;100043.00;;;;2078550;28;21859;-69
2023/12/09 00:40:05;;;;;;;12.03;8.00;;;;;21.70;100044.00;;;;2076007;28;20231;-69
2023/12/09 00:41:06;;;;;;;13.90;8.40;;;;;21.70;100051.00;;;;2087291;28;20652;-69
2023/12/09 00:42:06;;;;;;;11.43;8.40;;;;;21.70;100041.00;;;;2085942;28;20212;-69
2023/12/09 00:43:06;;;;;;;11.53;7.43;;;;;21.70;100048.00;;;;2077714;28;20217;-69
2023/12/09 00:44:07;;;;;;;12.73;8.77;;;;;21.60;100051.00;;;;2079131;28;20812;-69
2023/12/09 00:45:07;;;;;;;11.20;7.37;;;;;21.70;100045.00;;;;2070500;28;20708;-69
2023/12/09 00:46:08;;;;;;;10.80;7.73;;;;;21.70;100041.00;;;;2080377;28;20577;-69
2023/12/09 00:47:08;;;;;;;10.03;7.00;;;;;21.70;100055.00;;;;2083354;28;20217;-69
2023/12/09 00:48:08;;;;;;;11.47;7.50;;;;;21.70;100047.00;;;;2079445;28;20229;-69
2023/12/09 00:49:08;;;;;;;9.10;7.00;;;;;21.70;100043.00;;;;2079581;28;20221;-69
2023/12/09 00:50:09;;;;;;;9.03;7.13;;;;;21.60;100040.00;;;;2069377;28;20217;-69
2023/12/09 00:51:09;;;;;;;8.70;7.00;;;;;21.60;100045.00;;;;2082044;28;20278;-69
2023/12/09 00:52:11;;;;;;;10.33;7.33;;;;;21.60;100044.00;;;;2082588;28;20213;-69
2023/12/09 00:53:12;;;;;;;10.30;6.97;;;;;21.70;100048.00;;;;2079442;28;20292;-69
2023/12/09 00:54:12;;;;;;;11.77;7.65;;;;;21.70;100047.00;;;;2080225;28;20209;-69
2023/12/09 00:55:13;;;;;;;10.60;6.60;;;;;21.60;100057.00;;;;2068013;28;20224;-69
2023/12/09 00:56:13;;;;;;;9.57;6.90;;;;;21.60;100044.00;;;;2079102;28;20221;-69
2023/12/09 00:57:14;;;;;;;9.53;7.20;;;;;21.60;100047.00;;;;2078752;28;20708;-69
2023/12/09 00:58:14;;;;;;;10.03;6.90;;;;;21.60;100053.00;;;;2074969;28;21121;-69
2023/12/09 00:59:14;;;;;;;9.53;6.40;;;;;21.60;100052.00;;;;2079865;28;20514;-69
2023/12/09 01:00:15;;;;;;;9.73;6.47;;;;;21.60;100056.00;;;;2066930;28;20267;-69
2023/12/09 01:01:15;;;;;;;9.47;6.90;;;;;21.60;100044.00;;;;2079740;28;20250;-69
2023/12/09 01:02:16;;;;;;;9.37;6.50;;;;;21.60;100055.00;;;;2079902;28;20217;-69
2023/12/09 01:03:16;;;;;;;8.77;6.87;;;;;21.60;100042.00;;;;2080525;28;20312;-69
2023/12/09 01:04:16;;;;;;;9.07;7.60;;;;;21.60;100057.00;;;;2081986;28;20224;-69
2023/12/09 01:05:17;;;;;;;8.53;6.77;;;;;21.60;100054.00;;;;2066259;28;20217;-69
2023/12/09 01:06:17;;;;;;;9.00;6.33;;;;;21.60;100052.00;;;;2079445;28;20264;-69
2023/12/09 01:07:17;;;;;;;9.50;6.67;;;;;21.60;100062.00;;;;2079267;28;20221;-69
2023/12/09 01:08:18;;;;;;;8.33;5.73;;;;;21.60;100059.00;;;;2078037;28;20306;-69
2023/12/09 01:09:20;;;;;;;8.20;5.87;;;;;21.50;100056.00;;;;2079814;28;20232;-69
2023/12/09 01:10:20;;;;;;;11.20;6.10;;;;;21.60;100053.00;;;;2067299;28;20631;-69
2023/12/09 01:11:21;;;;;;;7.70;5.80;;;;;21.60;100057.00;;;;2079930;28;20279;-69
2023/12/09 01:12:21;;;;;;;10.30;6.97;;;;;21.50;100055.00;;;;2079106;28;20248;-69
2023/12/09 01:13:22;;;;;;;8.53;6.50;;;;;21.50;100063.00;;;;2078661;28;20218;-69
2023/12/09 01:14:22;;;;;;;8.40;5.87;;;;;21.50;100062.00;;;;2079383;28;20224;-69
2023/12/09 01:15:23;;;;;;;8.60;5.80;;;;;21.50;100054.00;;;;2066661;28;20972;-69
2023/12/09 01:16:23;;;;;;;9.37;6.03;;;;;21.60;100061.00;;;;2079873;28;21109;-69
2023/12/09 01:17:23;;;;;;;6.23;4.73;;;;;21.50;100051.00;;;;2078881;28;20233;-69
2023/12/09 01:18:24;;;;;;;8.83;5.53;;;;;21.50;100056.00;;;;2079491;28;20228;-69
2023/12/09 01:19:24;;;;;;;7.33;5.17;;;;;21.50;100059.00;;;;2076889;28;20322;-69
2023/12/09 01:20:24;;;;;;;9.30;6.23;;;;;21.50;100051.00;;;;2068539;28;20282;-69
2023/12/09 01:21:25;;;;;;;9.97;5.53;;;;;21.50;100054.00;;;;2079835;28;20221;-69
2023/12/09 01:22:25;;;;;;;8.10;5.50;;;;;21.50;100054.00;;;;2085877;28;20224;-69
2023/12/09 01:23:25;;;;;;;9.27;6.00;;;;;21.50;100052.00;;;;2079278;28;20617;-69
2023/12/09 01:24:26;;;;;;;9.60;5.30;;;;;21.50;100046.00;;;;2079102;28;20703;-69
2023/12/09 01:25:26;;;;;;;7.00;4.93;;;;;21.50;100057.00;;;;2070193;28;20581;-69
2023/12/09 01:26:26;;;;;;;6.53;4.50;;;;;21.50;100052.00;;;;2079318;28;20581;-69
2023/12/09 01:27:27;;;;;;;8.80;5.20;;;;;21.50;100052.00;;;;2075963;28;20705;-69
2023/12/09 01:28:27;;;;;;;7.70;4.80;;;;;21.50;100058.00;;;;2077072;28;20693;-69
2023/12/09 01:29:28;;;;;;;7.10;4.63;;;;;21.50;100051.00;;;;2078964;28;20217;-69
2023/12/09 01:30:28;;;;;;;10.13;5.40;;;;;21.50;100053.00;;;;2070129;28;20225;-69
2023/12/09 01:31:29;;;;;;;8.80;5.13;;;;;21.50;100053.00;;;;2076557;28;20259;-69
2023/12/09 01:32:30;;;;;;;7.85;4.38;;;;;21.40;100046.00;;;;2078679;28;22853;-69
2023/12/09 01:33:30;;;;;;;7.10;4.97;;;;;21.40;100059.00;;;;2079127;28;20260;-69
2023/12/09 01:34:30;;;;;;;7.47;4.53;;;;;21.40;100054.00;;;;2078367;28;20271;-69
2023/12/09 01:35:31;;;;;;;8.30;4.90;;;;;21.40;100057.00;;;;2080150;28;20279;-69
2023/12/09 01:36:31;;;;;;;7.70;4.60;;;;;21.40;100059.00;;;;2082554;28;20243;-69
2023/12/09 01:37:31;;;;;;;6.67;4.77;;;;;21.40;100049.00;;;;2077061;28;20217;-69
2023/12/09 01:38:32;;;;;;;7.00;4.50;;;;;21.40;100061.00;;;;2077119;28;20229;-69
2023/12/09 01:39:32;;;;;;;6.47;4.43;;;;;21.40;100050.00;;;;2069887;28;20248;-69
2023/12/09 01:40:32;;;;;;;9.23;4.90;;;;;21.40;100046.00;;;;2079419;28;20213;-69
2023/12/09 01:41:33;;;;;;;6.27;4.47;;;;;21.40;100053.00;;;;2082435;28;20677;-69
2023/12/09 01:42:33;;;;;;;7.20;4.20;;;;;21.40;100053.00;;;;2080379;28;20273;-69
2023/12/09 01:43:34;;;;;;;6.63;4.33;;;;;21.40;100049.00;;;;2079355;28;20224;-69
2023/12/09 01:44:34;;;;;;;6.60;4.50;;;;;21.40;100045.00;;;;2070682;28;20217;-69
2023/12/09 01:45:35;;;;;;;8.00;4.37;;;;;21.40;100044.00;;;;2078416;28;20209;-69
2023/12/09 01:46:35;;;;;;;9.57;4.67;;;;;21.40;100046.00;;;;2081205;28;20213;-69
2023/12/09 01:47:37;;;;;;;6.50;3.97;;;;;21.40;100045.00;;;;2079949;28;20222;-69
2023/12/09 01:48:38;;;;;;;6.47;4.20;;;;;21.40;100046.00;;;;2076752;28;20260;-69
2023/12/09 01:49:38;;;;;;;5.68;3.53;;;;;21.40;100035.00;;;;2062665;28;20253;-69
2023/12/09 01:50:39;;;;;;;5.50;3.67;;;;;21.40;100036.00;;;;2077025;28;20225;-69
2023/12/09 01:51:39;;;;;;;5.43;3.97;;;;;21.40;100039.00;;;;2079471;28;20210;-69
2023/12/09 01:52:40;;;;;;;6.40;4.23;;;;;21.30;100044.00;;;;2072000;28;20257;-69
2023/12/09 01:53:40;;;;;;;8.37;4.90;;;;;21.40;100038.00;;;;2063205;28;20211;-69
2023/12/09 01:54:40;;;;;;;8.40;3.70;;;;;21.40;100043.00;;;;2062084;28;20218;-69
2023/12/09 01:55:41;;;;;;;9.47;4.30;;;;;21.40;100040.00;;;;2075557;28;20229;-69
2023/12/09 01:56:41;;;;;;;5.63;3.97;;;;;21.40;100044.00;;;;2072388;28;20225;-69
2023/12/09 01:57:41;;;;;;;7.10;4.60;;;;;21.30;100057.00;;;;2061674;28;20753;-69
2023/12/09 01:58:42;;;;;;;6.60;4.37;;;;;21.40;100056.00;;;;2061825;28;20657;-69
2023/12/09 01:59:42;;;;;;;6.83;4.43;;;;;21.30;100061.00;;;;2053838;28;20695;-69
2023/12/09 02:00:42;;;;;;;5.60;4.03;;;;;21.30;100047.00;;;;2079911;28;20778;-69
2023/12/09 02:01:43;;;;;;;6.63;3.70;;;;;21.30;100015.00;;;;2080651;28;20213;-69
2023/12/09 02:02:44;;;;;;;8.93;4.43;;;;;21.30;100051.00;;;;2071529;28;20745;-69
2023/12/09 02:03:44;;;;;;;6.43;4.20;;;;;21.40;100043.00;;;;2080320;28;20241;-69
2023/12/09 02:04:44;;;;;;;5.60;3.73;;;;;21.30;100048.00;;;;2068853;28;20677;-69
2023/12/09 02:05:45;;;;;;;5.93;4.00;;;;;21.40;100043.00;;;;2080558;28;20295;-69
2023/12/09 02:06:45;;;;;;;7.70;4.10;;;;;21.30;100040.00;;;;2081210;28;20213;-69
2023/12/09 02:07:46;;;;;;;6.07;3.90;;;;;21.40;100044.00;;;;2080088;28;20225;-69
2023/12/09 02:08:46;;;;;;;6.47;3.80;;;;;21.40;100036.00;;;;2079746;28;20206;-69
2023/12/09 02:09:46;;;;;;;5.70;3.23;;;;;21.30;100046.00;;;;2068907;28;20278;-69
2023/12/09 02:10:49;;;;;;;5.20;3.53;;;;;21.30;100007.00;;;;2080252;28;20209;-69
2023/12/09 02:11:55;;;;;;;5.80;3.15;;;;;21.30;100046.00;;;;2071513;28;20206;-69
2023/12/09 02:13:15;;;;;;;7.22;3.70;;;;;21.30;100048.00;;;;2059218;28;20306;-69
2023/12/09 02:14:24;;;;;;;5.75;3.50;;;;;21.30;100044.00;;;;2077053;28;20218;-69
2023/12/09 02:15:26;;;;;;;5.53;3.40;;;;;21.30;100040.00;;;;2070699;28;20864;-69
2023/12/09 02:16:31;;;;;;;5.13;3.20;;;;;21.30;100049.00;;;;2072213;28;20213;-69
2023/12/09 02:17:37;;;;;;;5.00;3.25;;;;;21.30;100041.00;;;;2072477;28;20273;-69
2023/12/09 02:18:37;;;;;;;4.88;3.28;;;;;21.30;100041.00;;;;2070773;28;20217;-69
2023/12/09 02:19:38;;;;;;;5.80;3.13;;;;;21.30;100041.00;;;;2054047;28;20211;-69
2023/12/09 02:20:38;;;;;;;4.80;3.43;;;;;21.30;100024.00;;;;2072105;28;20252;-69
2023/12/09 02:21:58;;;;;;;5.80;3.20;;;;;21.30;100033.00;;;;2072906;28;20222;-69
2023/12/09 02:23:11;;;;;;;6.35;2.70;;;;;21.30;100029.00;;;;2061087;28;20219;-69
2023/12/09 02:24:11;;;;;;;6.07;3.47;;;;;21.30;100029.00;;;;2073467;28;20222;-69
2023/12/09 02:25:11;;;;;;;3.90;2.73;;;;;21.30;100025.00;;;;2071181;28;20205;-69
2023/12/09 02:26:17;;;;;;;5.90;2.83;;;;;21.30;100020.00;;;;2080393;28;20214;-69
2023/12/09 02:27:19;;;;;;;5.95;3.00;;;;;21.30;99994.00;;;;2071630;28;20733;-69
2023/12/09 02:28:26;;;;;;;4.70;3.08;;;;;21.20;100017.00;;;;2055500;28;20231;-69
2023/12/09 02:29:26;;;;;;;4.93;3.50;;;;;21.20;99981.00;;;;2065416;28;20219;-69
2023/12/09 02:30:45;;;;;;;4.73;3.00;;;;;21.20;100016.00;;;;2062375;28;20222;-69
2023/12/09 02:31:45;;;;;;;5.55;2.80;;;;;21.20;100011.00;;;;2079868;28;20221;-69
2023/12/09 02:32:46;;;;;;;6.40;3.47;;;;;21.20;100010.00;;;;2077879;28;20697;-69
2023/12/09 02:33:46;;;;;;;7.70;2.70;;;;;21.20;100008.00;;;;2054366;28;20731;-69
2023/12/09 02:34:46;;;;;;;5.10;3.00;;;;;21.20;99986.00;;;;2038856;28;20268;-69
2023/12/09 02:35:47;;;;;;;5.30;2.90;;;;;21.20;100015.00;;;;2055962;28;20219;-69
2023/12/09 02:36:48;;;;;;;4.95;3.00;;;;;21.20;100008.00;;;;2072172;28;20217;-69
2023/12/09 02:37:48;;;;;;;6.13;2.80;;;;;21.20;100005.00;;;;2080059;28;20228;-69
2023/12/09 02:38:48;;;;;;;4.93;2.90;;;;;21.20;100006.00;;;;2076886;28;20214;-69
2023/12/09 02:39:49;;;;;;;4.80;2.50;;;;;21.20;100004.00;;;;2053644;28;20230;-69
2023/12/09 02:40:49;;;;;;;6.37;3.37;;;;;21.20;99968.00;;;;2047574;28;20208;-69
2023/12/09 02:41:49;;;;;;;7.30;3.30;;;;;21.20;100002.00;;;;2063718;28;20231;-69
2023/12/09 02:42:50;;;;;;;6.30;2.93;;;;;21.20;100011.00;;;;2071922;28;20736;-69
2023/12/09 02:43:50;;;;;;;5.77;3.00;;;;;21.20;100004.00;;;;2071203;28;20673;-69
2023/12/09 02:44:50;;;;;;;4.57;3.37;;;;;21.20;99993.00;;;;2054078;28;20598;-69
2023/12/09 02:45:51;;;;;;;4.30;3.37;;;;;21.20;99994.00;;;;2071189;28;20264;-69
2023/12/09 02:46:55;;;;;;;8.10;3.07;;;;;21.20;99987.00;;;;2080213;28;20209;-69
2023/12/09 02:47:56;;;;;;;8.27;3.17;;;;;21.20;99993.00;;;;2072085;28;20234;-69
2023/12/09 02:48:58;;;;;;;5.40;3.13;;;;;21.10;99985.00;;;;2071287;28;20281;-69
2023/12/09 02:49:59;;;;;;;4.88;3.03;;;;;21.20;99985.00;;;;2062043;28;20255;-69
2023/12/09 02:50:59;;;;;;;6.17;3.30;;;;;21.10;99990.00;;;;2063314;28;20683;-69
2023/12/09 02:51:59;;;;;;;6.10;2.90;;;;;21.10;99984.00;;;;2063746;28;20682;-69
2023/12/09 02:53:00;;;;;;;6.67;2.63;;;;;21.10;99990.00;;;;2073961;28;20228;-69
2023/12/09 02:54:00;;;;;;;3.77;2.37;;;;;21.10;99987.00;;;;2084542;28;20242;-69
2023/12/09 02:55:00;;;;;;;3.90;2.73;;;;;21.10;99997.00;;;;2070874;28;20214;-69
2023/12/09 02:56:01;;;;;;;4.50;3.07;;;;;21.10;99988.00;;;;2079655;28;20201;-69
2023/12/09 02:57:01;;;;;;;4.77;2.93;;;;;21.20;99983.00;;;;2080103;28;20213;-69
2023/12/09 02:58:01;;;;;;;4.70;2.53;;;;;21.10;99987.00;;;;2080209;28;20232;-69
2023/12/09 02:59:02;;;;;;;4.07;2.50;;;;;21.10;99984.00;;;;2075316;28;20209;-69
2023/12/09 03:00:05;;;;;;;5.27;2.90;;;;;21.10;99979.00;;;;2069815;28;20226;-69
2023/12/09 03:01:05;;;;;;;4.93;2.92;;;;;21.10;99982.00;;;;2075094;28;20214;-69
2023/12/09 03:02:06;;;;;;;3.63;2.50;;;;;21.10;99980.00;;;;2080678;28;20649;-69
2023/12/09 03:03:06;;;;;;;4.60;2.67;;;;;21.10;99981.00;;;;2083514;28;20233;-69
2023/12/09 03:04:07;;;;;;;4.70;2.93;;;;;21.10;99975.00;;;;2078396;28;20233;-69
2023/12/09 03:05:07;;;;;;;5.43;2.80;;;;;21.10;99972.00;;;;2070077;28;21068;-69
2023/12/09 03:06:07;;;;;;;5.20;2.60;;;;;21.10;99979.00;;;;2080111;28;20281;-69
2023/12/09 03:07:08;;;;;;;4.97;3.03;;;;;21.10;99981.00;;;;2079247;28;20587;-69
2023/12/09 03:08:08;;;;;;;5.33;2.30;;;;;21.10;99973.00;;;;2080075;28;20244;-69
2023/12/09 03:09:08;;;;;;;5.03;2.53;;;;;21.10;99979.00;;;;2080656;28;21564;-69
2023/12/09 03:10:09;;;;;;;4.30;3.07;;;;;21.10;99983.00;;;;2069785;28;20306;-69
2023/12/09 03:11:09;;;;;;;4.23;2.50;;;;;21.10;99977.00;;;;2080503;28;20228;-69
2023/12/09 03:12:09;;;;;;;5.20;2.33;;;;;21.10;99982.00;;;;2079617;28;20283;-69
2023/12/09 03:13:11;;;;;;;5.43;2.37;;;;;21.10;99978.00;;;;2077213;28;20225;-69
2023/12/09 03:14:11;;;;;;;4.25;2.78;;;;;21.10;99987.00;;;;2077757;28;20665;-69
2023/12/09 03:15:11;;;;;;;5.60;2.40;;;;;21.10;99968.00;;;;2068462;28;20278;-69
2023/12/09 03:16:12;;;;;;;7.10;2.70;;;;;21.10;99969.00;;;;2080396;28;20213;-69
2023/12/09 03:17:12;;;;;;;5.83;2.60;;;;;21.10;99969.00;;;;2076574;28;20252;-69
2023/12/09 03:18:12;;;;;;;9.13;2.80;;;;;21.10;99973.00;;;;2077987;28;20221;-69
2023/12/09 03:19:13;;;;;;;5.30;2.80;;;;;21.10;99974.00;;;;2074229;28;20274;-69
2023/12/09 03:20:13;;;;;;;5.27;3.10;;;;;21.10;99968.00;;;;2070664;28;20221;-69
2023/12/09 03:21:15;;;;;;;5.83;2.73;;;;;21.10;99976.00;;;;2080583;28;20231;-69
2023/12/09 03:22:15;;;;;;;4.93;2.40;;;;;21.10;99971.00;;;;2079847;28;21006;-69
2023/12/09 03:23:16;;;;;;;4.27;2.10;;;;;21.10;99967.00;;;;2080651;28;20225;-69
2023/12/09 03:24:16;;;;;;;4.20;2.40;;;;;21.10;99971.00;;;;2079357;28;20224;-69
2023/12/09 03:25:16;;;;;;;5.40;2.73;;;;;21.10;99969.00;;;;2070952;28;20748;-69
2023/12/09 03:26:17;;;;;;;4.00;2.23;;;;;21.00;99966.00;;;;2080449;28;20701;-69
2023/12/09 03:27:17;;;;;;;2.93;1.93;;;;;21.10;99968.00;;;;2072594;28;20270;-69
2023/12/09 03:28:18;;;;;;;6.30;2.27;;;;;21.00;99960.00;;;;2086364;28;20250;-69
2023/12/09 03:29:18;;;;;;;4.43;2.20;;;;;21.00;99964.00;;;;2083526;28;20224;-69
2023/12/09 03:30:18;;;;;;;4.43;2.10;;;;;21.00;99961.00;;;;2071572;28;20222;-69
2023/12/09 03:31:19;;;;;;;3.20;2.10;;;;;21.00;99954.00;;;;2078736;28;20228;-69
2023/12/09 03:32:19;;;;;;;4.20;2.00;;;;;21.10;99953.00;;;;2080460;28;20221;-69
2023/12/09 03:33:19;;;;;;;5.40;2.23;;;;;21.00;99944.00;;;;2080540;28;20217;-69
2023/12/09 03:34:20;;;;;;;4.57;2.20;;;;;21.00;99951.00;;;;2080741;28;20307;-69
2023/12/09 03:35:20;;;;;;;4.70;2.03;;;;;21.00;99949.00;;;;2071044;28;20222;-69
2023/12/09 03:36:20;;;;;;;2.80;2.30;;;;;21.00;99938.00;;;;2079694;28;20217;-69
2023/12/09 03:37:21;;;;;;;3.40;2.23;;;;;21.00;99942.00;;;;2080371;28;20303;-69
2023/12/09 03:38:21;;;;;;;4.80;2.27;;;;;21.00;99946.00;;;;2075173;28;20222;-69
2023/12/09 03:39:21;;;;;;;5.20;2.37;;;;;21.00;99952.00;;;;2080658;28;20253;-69
2023/12/09 03:40:22;;;;;;;3.40;2.00;;;;;21.00;99945.00;;;;2071173;28;20213;-69
2023/12/09 03:41:22;;;;;;;5.50;2.37;;;;;21.00;99944.00;;;;2079680;28;20242;-69
2023/12/09 03:42:22;;;;;;;3.90;2.10;;;;;21.00;99938.00;;;;2080671;28;20349;-69
2023/12/09 03:43:23;;;;;;;4.30;1.93;;;;;21.00;99940.00;;;;2079675;28;20241;-69
2023/12/09 03:44:23;;;;;;;4.47;2.03;;;;;21.00;99933.00;;;;2080346;28;20408;-69
2023/12/09 03:45:23;;;;;;;4.10;2.30;;;;;21.00;99940.00;;;;2070559;28;20260;-69
2023/12/09 03:46:24;;;;;;;5.00;2.30;;;;;21.00;99932.00;;;;2080134;28;20640;-69
2023/12/09 03:47:24;;;;;;;4.53;2.40;;;;;21.00;99934.00;;;;2080211;28;20840;-69
2023/12/09 03:48:27;;;;;;;5.57;2.60;;;;;21.00;99934.00;;;;2075247;28;20292;-69
2023/12/09 03:49:28;;;;;;;3.60;1.88;;;;;21.00;99930.00;;;;2076452;28;20214;-69
2023/12/09 03:50:28;;;;;;;4.03;2.40;;;;;21.00;99914.00;;;;2069348;28;20221;-69
2023/12/09 03:51:28;;;;;;;4.43;2.10;;;;;21.00;99922.00;;;;2071394;28;20623;-69
2023/12/09 03:52:29;;;;;;;5.83;2.13;;;;;21.00;99923.00;;;;2079588;28;20685;-69
2023/12/09 03:53:29;;;;;;;3.47;1.70;;;;;21.00;99933.00;;;;2079760;28;20796;-69
2023/12/09 03:54:29;;;;;;;6.03;2.30;;;;;21.00;99929.00;;;;2080250;28;20210;-69
2023/12/09 03:55:30;;;;;;;5.63;2.37;;;;;21.00;99931.00;;;;2070247;28;20220;-69
2023/12/09 03:56:30;;;;;;;5.77;2.57;;;;;21.00;99933.00;;;;2080447;28;20205;-69
2023/12/09 03:57:31;;;;;;;3.90;2.03;;;;;21.00;99930.00;;;;2079333;28;20210;-69
2023/12/09 03:58:31;;;;;;;3.90;2.27;;;;;21.00;99939.00;;;;2079890;28;20214;-69
2023/12/09 03:59:31;;;;;;;4.00;2.13;;;;;20.90;99945.00;;;;2074857;28;20210;-69
2023/12/09 04:00:32;;;;;;;3.53;2.13;;;;;21.00;99944.00;;;;2076992;28;20202;-69
2023/12/09 04:01:32;;;;;;;5.17;2.10;;;;;20.90;99944.00;;;;2071391;28;20214;-69
2023/12/09 04:02:33;;;;;;;4.17;2.43;;;;;20.90;99937.00;;;;2070028;28;20228;-69
2023/12/09 04:03:33;;;;;;;3.87;2.53;;;;;20.90;99946.00;;;;2081973;28;20217;-69
2023/12/09 04:04:37;;;;;;;5.50;2.00;;;;;20.90;99945.00;;;;2069678;28;20233;-69
2023/12/09 04:05:38;;;;;;;4.55;2.50;;;;;20.90;99943.00;;;;2075765;28;20736;-69
2023/12/09 04:06:38;;;;;;;4.47;2.17;;;;;20.90;99949.00;;;;2078299;28;20218;-69
2023/12/09 04:07:38;;;;;;;3.43;2.07;;;;;20.90;99944.00;;;;2085349;28;20229;-69
2023/12/09 04:08:39;;;;;;;4.43;2.30;;;;;20.90;99910.00;;;;2073170;28;20214;-69
2023/12/09 04:09:39;;;;;;;2.93;1.70;;;;;20.90;99952.00;;;;2053389;28;20222;-69
2023/12/09 04:10:39;;;;;;;4.00;2.20;;;;;20.90;99956.00;;;;2079560;28;20217;-69
2023/12/09 04:11:40;;;;;;;4.40;2.07;;;;;20.90;99960.00;;;;2079655;28;20210;-69
2023/12/09 04:12:40;;;;;;;4.67;2.40;;;;;20.90;99960.00;;;;2079698;28;20244;-69
2023/12/09 04:13:41;;;;;;;4.17;2.00;;;;;20.90;99951.00;;;;2080224;28;20213;-69
2023/12/09 04:14:41;;;;;;;4.70;2.40;;;;;20.90;99954.00;;;;2069926;28;20260;-69
2023/12/09 04:15:41;;;;;;;5.10;2.07;;;;;20.90;99951.00;;;;2080062;28;20210;-69
2023/12/09 04:16:42;;;;;;;4.63;2.30;;;;;20.90;99949.00;;;;2079198;28;20213;-69
2023/12/09 04:17:42;;;;;;;4.17;2.10;;;;;20.90;99953.00;;;;2080176;28;20214;-69
2023/12/09 04:18:43;;;;;;;3.67;1.67;;;;;20.90;99952.00;;;;2079261;28;20453;-69
2023/12/09 04:19:43;;;;;;;4.00;1.90;;;;;20.90;99949.00;;;;2071127;28;20291;-69
2023/12/09 04:20:43;;;;;;;5.20;2.30;;;;;20.90;99952.00;;;;2079536;28;20213;-69
2023/12/09 04:21:44;;;;;;;5.90;2.13;;;;;20.90;99945.00;;;;2079575;28;20218;-69
2023/12/09 04:22:44;;;;;;;4.70;2.07;;;;;20.90;99947.00;;;;2079910;28;20753;-69
2023/12/09 04:23:44;;;;;;;5.73;2.13;;;;;20.90;99943.00;;;;2079306;28;20233;-69
2023/12/09 04:24:45;;;;;;;2.73;1.63;;;;;20.90;99948.00;;;;2070485;28;20225;-69
2023/12/09 04:25:45;;;;;;;4.33;1.90;;;;;20.90;99938.00;;;;2079984;28;20214;-69
2023/12/09 04:26:45;;;;;;;3.00;1.90;;;;;20.90;99949.00;;;;2079436;28;20213;-69
2023/12/09 04:27:46;;;;;;;6.60;2.70;;;;;20.90;99955.00;;;;2079151;28;20264;-69
2023/12/09 04:28:46;;;;;;;2.93;1.90;;;;;20.90;99953.00;;;;2078611;28;20206;-69
2023/12/09 04:29:47;;;;;;;3.73;1.60;;;;;20.90;99954.00;;;;2070321;28;20222;-69
2023/12/09 04:30:47;;;;;;;4.43;2.13;;;;;20.90;99951.00;;;;2079146;28;20289;-69
2023/12/09 04:31:48;;;;;;;4.20;2.23;;;;;20.90;99949.00;;;;2080099;28;20252;-69
2023/12/09 04:32:48;;;;;;;4.43;1.70;;;;;20.90;99943.00;;;;2080075;28;20579;-69
2023/12/09 04:33:48;;;;;;;6.20;1.70;;;;;20.90;99950.00;;;;2079659;28;20213;-69
2023/12/09 04:34:49;;;;;;;3.63;1.80;;;;;20.90;99951.00;;;;2070402;28;20213;-69
2023/12/09 04:35:49;;;;;;;4.70;1.97;;;;;20.80;99942.00;;;;2079348;28;20209;-69
2023/12/09 04:36:49;;;;;;;4.03;2.00;;;;;20.90;99941.00;;;;2080190;28;20680;-69
2023/12/09 04:37:50;;;;;;;2.60;1.70;;;;;20.80;99933.00;;;;2079427;28;20673;-69
2023/12/09 04:38:50;;;;;;;3.50;1.80;;;;;20.80;99946.00;;;;2077619;28;20276;-69
2023/12/09 04:39:50;;;;;;;6.40;2.17;;;;;20.80;99949.00;;;;2070584;28;20225;-69
2023/12/09 04:40:51;;;;;;;3.57;2.07;;;;;20.80;99948.00;;;;2079418;28;20213;-69
2023/12/09 04:41:51;;;;;;;4.30;1.90;;;;;20.80;99946.00;;;;2079907;28;20251;-69
2023/12/09 04:42:51;;;;;;;5.37;2.10;;;;;20.80;99942.00;;;;2076492;28;20209;-69
2023/12/09 04:43:52;;;;;;;3.53;2.10;;;;;20.80;99935.00;;;;2080132;28;20270;-69
2023/12/09 04:44:52;;;;;;;5.13;2.03;;;;;20.80;99940.00;;;;2070366;28;20233;-69
2023/12/09 04:45:52;;;;;;;5.10;2.00;;;;;20.80;99937.00;;;;2078952;28;20231;-69
2023/12/09 04:46:53;;;;;;;3.93;2.40;;;;;20.80;99931.00;;;;2079954;28;20213;-69
2023/12/09 04:47:53;;;;;;;2.83;1.77;;;;;20.80;99929.00;;;;2079273;28;20592;-69
2023/12/09 04:48:53;;;;;;;3.67;1.90;;;;;20.80;99925.00;;;;2075856;28;20600;-69
2023/12/09 04:49:54;;;;;;;5.27;1.80;;;;;20.80;99919.00;;;;2068339;28;20241;-69
2023/12/09 04:50:54;;;;;;;3.00;1.50;;;;;20.80;99927.00;;;;2077824;28;20221;-69
2023/12/09 04:51:54;;;;;;;5.77;2.23;;;;;20.80;99930.00;;;;2078838;28;20251;-69
2023/12/09 04:52:55;;;;;;;5.57;2.10;;;;;20.80;99924.00;;;;2079458;28;20691;-69
2023/12/09 04:53:55;;;;;;;2.47;1.70;;;;;20.80;99920.00;;;;2080118;28;20217;-69
2023/12/09 04:54:55;;;;;;;2.87;1.60;;;;;20.80;99922.00;;;;2068657;28;20220;-69
2023/12/09 04:55:56;;;;;;;3.70;1.90;;;;;20.80;99917.00;;;;2079573;28;20213;-69
2023/12/09 04:56:56;;;;;;;4.30;2.33;;;;;20.80;99921.00;;;;2079813;28;20213;-69
2023/12/09 04:57:57;;;;;;;2.90;1.63;;;;;20.80;99917.00;;;;2080925;28;20224;-69
2023/12/09 04:58:57;;;;;;;4.60;2.23;;;;;20.80;99916.00;;;;2077541;28;20629;-69
2023/12/09 04:59:57;;;;;;;4.50;1.90;;;;;20.80;99920.00;;;;2071638;28;20218;-69
2023/12/09 05:00:58;;;;;;;2.60;1.43;;;;;20.80;99911.00;;;;2080418;28;20220;-69
2023/12/09 05:01:58;;;;;;;3.37;1.90;;;;;20.80;99910.00;;;;2079234;28;20236;-69